sensor_id;sensor_type;location;lat;lon;timestamp;P1;durP1;ratioP1;P2;durP2;ratioP2
1545;SDS011;766;51.502;9.752;2024-03-25T00:00:13;16.20;;;2.30;;
1545;SDS011;766;51.502;9.752;2024-03-25T00:02:42;6.22;;;2.22;;
1545;SDS011;766;51.502;9.752;2024-03-25T00:05:10;11.05;;;2.67;;
1545;SDS011;766;51.502;9.752;2024-03-25T00:07:36;8.10;;;2.47;;
1545;SDS011;766;51.502;9.752;2024-03-25T00:10:04;7.18;;;2.22;;
1545;SDS011;766;51.502;9.752;2024-03-25T00:12:31;8.43;;;2.28;;
1545;SDS011;766;51.502;9.752;2024-03-25T00:15:00;9.95;;;2.60;;
1545;SDS011;766;51.502;9.752;2024-03-25T00:17:26;8.88;;;2.80;;
1545;SDS011;766;51.502;9.752;2024-03-25T00:19:55;6.25;;;2.28;;
1545;SDS011;766;51.502;9.752;2024-03-25T00:22:21;10.10;;;2.28;;
1545;SDS011;766;51.502;9.752;2024-03-25T00:24:50;11.30;;;2.70;;
1545;SDS011;766;51.502;9.752;2024-03-25T00:27:17;11.10;;;3.90;;
1545;SDS011;766;51.502;9.752;2024-03-25T00:29:44;9.07;;;2.15;;
1545;SDS011;766;51.502;9.752;2024-03-25T00:32:11;10.27;;;2.42;;
1545;SDS011;766;51.502;9.752;2024-03-25T00:34:40;7.85;;;2.45;;
1545;SDS011;766;51.502;9.752;2024-03-25T00:37:07;7.38;;;2.55;;
1545;SDS011;766;51.502;9.752;2024-03-25T00:39:38;7.63;;;2.30;;
1545;SDS011;766;51.502;9.752;2024-03-25T00:42:04;8.93;;;2.30;;
1545;SDS011;766;51.502;9.752;2024-03-25T00:44:31;11.02;;;3.03;;
1545;SDS011;766;51.502;9.752;2024-03-25T00:46:57;16.27;;;3.25;;
1545;SDS011;766;51.502;9.752;2024-03-25T00:49:27;7.03;;;2.13;;
1545;SDS011;766;51.502;9.752;2024-03-25T00:51:54;10.27;;;2.42;;
1545;SDS011;766;51.502;9.752;2024-03-25T00:54:23;9.27;;;2.00;;
1545;SDS011;766;51.502;9.752;2024-03-25T00:56:49;8.23;;;2.55;;
1545;SDS011;766;51.502;9.752;2024-03-25T00:59:18;11.90;;;2.40;;
1545;SDS011;766;51.502;9.752;2024-03-25T01:01:45;10.30;;;2.28;;
1545;SDS011;766;51.502;9.752;2024-03-25T01:04:12;5.90;;;2.00;;
1545;SDS011;766;51.502;9.752;2024-03-25T01:06:38;7.90;;;2.25;;
1545;SDS011;766;51.502;9.752;2024-03-25T01:09:09;7.60;;;2.20;;
1545;SDS011;766;51.502;9.752;2024-03-25T01:11:36;9.57;;;2.58;;
1545;SDS011;766;51.502;9.752;2024-03-25T01:14:04;6.68;;;2.05;;
1545;SDS011;766;51.502;9.752;2024-03-25T01:16:30;10.38;;;2.45;;
1545;SDS011;766;51.502;9.752;2024-03-25T01:18:57;12.15;;;4.60;;
1545;SDS011;766;51.502;9.752;2024-03-25T01:21:27;11.82;;;2.30;;
1545;SDS011;766;51.502;9.752;2024-03-25T01:23:55;10.82;;;2.65;;
1545;SDS011;766;51.502;9.752;2024-03-25T01:26:21;8.18;;;2.42;;
1545;SDS011;766;51.502;9.752;2024-03-25T01:28:50;14.05;;;2.42;;
1545;SDS011;766;51.502;9.752;2024-03-25T01:31:16;6.97;;;2.42;;
1545;SDS011;766;51.502;9.752;2024-03-25T01:33:44;14.95;;;2.50;;
1545;SDS011;766;51.502;9.752;2024-03-25T01:36:11;10.82;;;2.40;;
1545;SDS011;766;51.502;9.752;2024-03-25T01:38:43;9.85;;;2.25;;
1545;SDS011;766;51.502;9.752;2024-03-25T01:41:09;8.25;;;1.95;;
1545;SDS011;766;51.502;9.752;2024-03-25T01:43:37;10.32;;;2.17;;
1545;SDS011;766;51.502;9.752;2024-03-25T01:46:05;10.77;;;2.33;;
1545;SDS011;766;51.502;9.752;2024-03-25T01:48:33;7.55;;;1.92;;
1545;SDS011;766;51.502;9.752;2024-03-25T01:50:59;9.35;;;2.85;;
1545;SDS011;766;51.502;9.752;2024-03-25T01:53:27;5.63;;;1.88;;
1545;SDS011;766;51.502;9.752;2024-03-25T01:55:55;7.97;;;2.17;;
1545;SDS011;766;51.502;9.752;2024-03-25T01:58:25;8.13;;;2.15;;
1545;SDS011;766;51.502;9.752;2024-03-25T02:00:51;12.57;;;2.58;;
1545;SDS011;766;51.502;9.752;2024-03-25T02:03:21;8.23;;;2.10;;
1545;SDS011;766;51.502;9.752;2024-03-25T02:05:49;6.35;;;2.10;;
1545;SDS011;766;51.502;9.752;2024-03-25T02:08:19;12.15;;;2.55;;
1545;SDS011;766;51.502;9.752;2024-03-25T02:10:46;11.02;;;2.17;;
1545;SDS011;766;51.502;9.752;2024-03-25T02:13:14;9.27;;;1.95;;
1545;SDS011;766;51.502;9.752;2024-03-25T02:15:40;12.25;;;2.72;;
1545;SDS011;766;51.502;9.752;2024-03-25T02:18:08;10.60;;;2.35;;
1545;SDS011;766;51.502;9.752;2024-03-25T02:20:36;14.15;;;2.22;;
1545;SDS011;766;51.502;9.752;2024-03-25T02:23:03;11.43;;;2.58;;
1545;SDS011;766;51.502;9.752;2024-03-25T02:25:30;8.40;;;2.75;;
1545;SDS011;766;51.502;9.752;2024-03-25T02:28:00;11.82;;;2.90;;
1545;SDS011;766;51.502;9.752;2024-03-25T02:30:26;8.15;;;2.40;;
1545;SDS011;766;51.502;9.752;2024-03-25T02:32:56;6.45;;;2.53;;
1545;SDS011;766;51.502;9.752;2024-03-25T02:35:22;12.30;;;2.83;;
1545;SDS011;766;51.502;9.752;2024-03-25T02:37:53;9.93;;;2.53;;
1545;SDS011;766;51.502;9.752;2024-03-25T02:40:19;8.52;;;2.72;;
1545;SDS011;766;51.502;9.752;2024-03-25T02:42:48;13.80;;;2.55;;
1545;SDS011;766;51.502;9.752;2024-03-25T02:45:16;9.07;;;2.40;;
1545;SDS011;766;51.502;9.752;2024-03-25T02:47:45;12.20;;;2.75;;
1545;SDS011;766;51.502;9.752;2024-03-25T02:50:12;21.25;;;3.47;;
1545;SDS011;766;51.502;9.752;2024-03-25T02:52:42;10.80;;;3.53;;
1545;SDS011;766;51.502;9.752;2024-03-25T02:55:08;14.95;;;2.58;;
1545;SDS011;766;51.502;9.752;2024-03-25T02:57:35;12.63;;;2.80;;
1545;SDS011;766;51.502;9.752;2024-03-25T03:00:02;16.95;;;2.95;;
1545;SDS011;766;51.502;9.752;2024-03-25T03:02:31;9.27;;;2.70;;
1545;SDS011;766;51.502;9.752;2024-03-25T03:04:57;12.43;;;3.58;;
1545;SDS011;766;51.502;9.752;2024-03-25T03:07:24;18.85;;;2.92;;
1545;SDS011;766;51.502;9.752;2024-03-25T03:09:51;6.63;;;2.72;;
1545;SDS011;766;51.502;9.752;2024-03-25T03:12:18;10.77;;;3.22;;
1545;SDS011;766;51.502;9.752;2024-03-25T03:14:44;10.80;;;3.03;;
1545;SDS011;766;51.502;9.752;2024-03-25T03:17:11;15.98;;;3.17;;
1545;SDS011;766;51.502;9.752;2024-03-25T03:19:40;11.75;;;2.35;;
1545;SDS011;766;51.502;9.752;2024-03-25T03:22:07;11.13;;;2.70;;
1545;SDS011;766;51.502;9.752;2024-03-25T03:24:33;8.73;;;2.05;;
1545;SDS011;766;51.502;9.752;2024-03-25T03:27:01;20.17;;;2.92;;
1545;SDS011;766;51.502;9.752;2024-03-25T03:29:27;9.30;;;2.70;;
1545;SDS011;766;51.502;9.752;2024-03-25T03:31:55;11.88;;;3.55;;
1545;SDS011;766;51.502;9.752;2024-03-25T03:34:23;12.60;;;2.95;;
1545;SDS011;766;51.502;9.752;2024-03-25T03:36:51;10.02;;;2.63;;
1545;SDS011;766;51.502;9.752;2024-03-25T03:39:18;12.05;;;2.78;;
1545;SDS011;766;51.502;9.752;2024-03-25T03:41:45;10.23;;;2.55;;
1545;SDS011;766;51.502;9.752;2024-03-25T03:44:11;10.50;;;2.65;;
1545;SDS011;766;51.502;9.752;2024-03-25T03:46:40;12.93;;;2.83;;
1545;SDS011;766;51.502;9.752;2024-03-25T03:49:06;10.13;;;3.13;;
1545;SDS011;766;51.502;9.752;2024-03-25T03:51:34;11.82;;;2.78;;
1545;SDS011;766;51.502;9.752;2024-03-25T03:54:01;9.40;;;2.50;;
1545;SDS011;766;51.502;9.752;2024-03-25T03:56:28;8.38;;;2.00;;
1545;SDS011;766;51.502;9.752;2024-03-25T03:58:55;7.25;;;2.40;;
1545;SDS011;766;51.502;9.752;2024-03-25T04:01:22;6.03;;;2.22;;
1545;SDS011;766;51.502;9.752;2024-03-25T04:03:48;12.35;;;2.70;;
1545;SDS011;766;51.502;9.752;2024-03-25T04:06:16;7.50;;;2.00;;
1545;SDS011;766;51.502;9.752;2024-03-25T04:08:43;10.02;;;2.03;;
1545;SDS011;766;51.502;9.752;2024-03-25T04:11:11;8.73;;;2.63;;
1545;SDS011;766;51.502;9.752;2024-03-25T04:13:38;7.78;;;2.42;;
1545;SDS011;766;51.502;9.752;2024-03-25T04:16:05;8.80;;;2.65;;
1545;SDS011;766;51.502;9.752;2024-03-25T04:18:33;10.55;;;2.63;;
1545;SDS011;766;51.502;9.752;2024-03-25T04:21:00;11.63;;;3.00;;
1545;SDS011;766;51.502;9.752;2024-03-25T04:23:26;10.07;;;2.90;;
1545;SDS011;766;51.502;9.752;2024-03-25T04:25:53;12.82;;;3.33;;
1545;SDS011;766;51.502;9.752;2024-03-25T04:28:21;14.82;;;3.55;;
1545;SDS011;766;51.502;9.752;2024-03-25T04:30:52;13.32;;;2.97;;
1545;SDS011;766;51.502;9.752;2024-03-25T04:33:19;12.65;;;3.67;;
1545;SDS011;766;51.502;9.752;2024-03-25T04:35:47;9.05;;;2.78;;
1545;SDS011;766;51.502;9.752;2024-03-25T04:38:16;13.95;;;2.88;;
1545;SDS011;766;51.502;9.752;2024-03-25T04:40:44;11.02;;;2.97;;
1545;SDS011;766;51.502;9.752;2024-03-25T04:43:11;13.15;;;3.08;;
1545;SDS011;766;51.502;9.752;2024-03-25T04:45:38;15.27;;;3.30;;
1545;SDS011;766;51.502;9.752;2024-03-25T04:48:05;11.07;;;3.08;;
1545;SDS011;766;51.502;9.752;2024-03-25T04:50:32;16.02;;;4.28;;
1545;SDS011;766;51.502;9.752;2024-03-25T04:52:58;13.60;;;3.47;;
1545;SDS011;766;51.502;9.752;2024-03-25T04:55:25;12.68;;;3.78;;
1545;SDS011;766;51.502;9.752;2024-03-25T04:57:51;15.70;;;3.92;;
1545;SDS011;766;51.502;9.752;2024-03-25T05:00:18;15.35;;;3.83;;
1545;SDS011;766;51.502;9.752;2024-03-25T05:02:45;13.57;;;4.13;;
1545;SDS011;766;51.502;9.752;2024-03-25T05:05:12;16.85;;;3.53;;
1545;SDS011;766;51.502;9.752;2024-03-25T05:07:38;8.70;;;3.42;;
1545;SDS011;766;51.502;9.752;2024-03-25T05:10:05;14.68;;;3.30;;
1545;SDS011;766;51.502;9.752;2024-03-25T05:12:32;16.77;;;4.18;;
1545;SDS011;766;51.502;9.752;2024-03-25T05:14:58;15.43;;;3.70;;
1545;SDS011;766;51.502;9.752;2024-03-25T05:17:24;12.07;;;3.20;;
1545;SDS011;766;51.502;9.752;2024-03-25T05:19:52;15.68;;;3.40;;
1545;SDS011;766;51.502;9.752;2024-03-25T05:22:18;14.68;;;4.05;;
1545;SDS011;766;51.502;9.752;2024-03-25T05:24:44;16.98;;;3.97;;
1545;SDS011;766;51.502;9.752;2024-03-25T05:27:10;11.50;;;3.63;;
1545;SDS011;766;51.502;9.752;2024-03-25T05:29:37;16.60;;;3.90;;
1545;SDS011;766;51.502;9.752;2024-03-25T05:32:03;12.70;;;3.70;;
1545;SDS011;766;51.502;9.752;2024-03-25T05:34:30;11.95;;;3.53;;
1545;SDS011;766;51.502;9.752;2024-03-25T05:36:58;11.77;;;3.45;;
1545;SDS011;766;51.502;9.752;2024-03-25T05:39:24;11.38;;;3.65;;
1545;SDS011;766;51.502;9.752;2024-03-25T05:41:51;11.40;;;3.28;;
1545;SDS011;766;51.502;9.752;2024-03-25T05:44:17;13.25;;;3.35;;
1545;SDS011;766;51.502;9.752;2024-03-25T05:46:43;13.65;;;3.92;;
1545;SDS011;766;51.502;9.752;2024-03-25T05:49:12;15.27;;;4.10;;
1545;SDS011;766;51.502;9.752;2024-03-25T05:51:39;14.60;;;3.58;;
1545;SDS011;766;51.502;9.752;2024-03-25T05:54:06;10.45;;;3.15;;
1545;SDS011;766;51.502;9.752;2024-03-25T05:56:33;8.52;;;3.40;;
1545;SDS011;766;51.502;9.752;2024-03-25T05:58:59;18.58;;;4.88;;
1545;SDS011;766;51.502;9.752;2024-03-25T06:01:26;21.60;;;5.03;;
1545;SDS011;766;51.502;9.752;2024-03-25T06:03:52;17.98;;;4.30;;
1545;SDS011;766;51.502;9.752;2024-03-25T06:06:19;22.60;;;4.35;;
1545;SDS011;766;51.502;9.752;2024-03-25T06:08:45;12.07;;;4.35;;
1545;SDS011;766;51.502;9.752;2024-03-25T06:11:13;10.10;;;4.13;;
1545;SDS011;766;51.502;9.752;2024-03-25T06:13:39;14.73;;;4.70;;
1545;SDS011;766;51.502;9.752;2024-03-25T06:16:06;14.27;;;4.40;;
1545;SDS011;766;51.502;9.752;2024-03-25T06:18:32;18.85;;;5.00;;
1545;SDS011;766;51.502;9.752;2024-03-25T06:20:58;16.48;;;4.07;;
1545;SDS011;766;51.502;9.752;2024-03-25T06:23:25;18.15;;;4.30;;
1545;SDS011;766;51.502;9.752;2024-03-25T06:25:52;18.25;;;4.45;;
1545;SDS011;766;51.502;9.752;2024-03-25T06:28:21;11.45;;;4.20;;
1545;SDS011;766;51.502;9.752;2024-03-25T06:30:48;14.82;;;4.15;;
1545;SDS011;766;51.502;9.752;2024-03-25T06:33:33;10.88;;;3.70;;
1545;SDS011;766;51.502;9.752;2024-03-25T06:36:18;15.05;;;4.13;;
1545;SDS011;766;51.502;9.752;2024-03-25T06:38:45;21.00;;;4.50;;
1545;SDS011;766;51.502;9.752;2024-03-25T06:41:11;12.82;;;4.15;;
1545;SDS011;766;51.502;9.752;2024-03-25T06:43:39;17.73;;;4.32;;
1545;SDS011;766;51.502;9.752;2024-03-25T06:46:06;15.43;;;3.97;;
1545;SDS011;766;51.502;9.752;2024-03-25T06:48:33;15.20;;;5.03;;
1545;SDS011;766;51.502;9.752;2024-03-25T06:50:59;16.20;;;4.50;;
1545;SDS011;766;51.502;9.752;2024-03-25T06:53:26;14.02;;;3.65;;
1545;SDS011;766;51.502;9.752;2024-03-25T06:55:53;18.27;;;3.88;;
1545;SDS011;766;51.502;9.752;2024-03-25T06:58:20;21.38;;;4.43;;
1545;SDS011;766;51.502;9.752;2024-03-25T07:00:48;16.52;;;4.03;;
1545;SDS011;766;51.502;9.752;2024-03-25T07:03:15;16.58;;;4.47;;
1545;SDS011;766;51.502;9.752;2024-03-25T07:05:41;17.02;;;4.90;;
1545;SDS011;766;51.502;9.752;2024-03-25T07:08:10;12.73;;;3.55;;
1545;SDS011;766;51.502;9.752;2024-03-25T07:10:36;14.43;;;3.50;;
1545;SDS011;766;51.502;9.752;2024-03-25T07:13:03;16.38;;;3.85;;
1545;SDS011;766;51.502;9.752;2024-03-25T07:15:29;18.20;;;4.18;;
1545;SDS011;766;51.502;9.752;2024-03-25T07:17:57;20.17;;;4.03;;
1545;SDS011;766;51.502;9.752;2024-03-25T07:20:24;16.90;;;3.83;;
1545;SDS011;766;51.502;9.752;2024-03-25T07:22:50;15.55;;;3.72;;
1545;SDS011;766;51.502;9.752;2024-03-25T07:25:18;13.55;;;3.80;;
1545;SDS011;766;51.502;9.752;2024-03-25T07:27:44;13.85;;;3.20;;
1545;SDS011;766;51.502;9.752;2024-03-25T07:30:10;21.25;;;4.13;;
1545;SDS011;766;51.502;9.752;2024-03-25T07:32:37;14.05;;;3.08;;
1545;SDS011;766;51.502;9.752;2024-03-25T07:35:05;14.10;;;4.10;;
1545;SDS011;766;51.502;9.752;2024-03-25T07:37:32;9.13;;;3.08;;
1545;SDS011;766;51.502;9.752;2024-03-25T07:39:58;11.70;;;3.10;;
1545;SDS011;766;51.502;9.752;2024-03-25T07:42:24;17.92;;;3.78;;
1545;SDS011;766;51.502;9.752;2024-03-25T07:44:51;16.25;;;3.78;;
1545;SDS011;766;51.502;9.752;2024-03-25T07:47:17;11.90;;;3.40;;
1545;SDS011;766;51.502;9.752;2024-03-25T07:49:43;12.20;;;3.40;;
1545;SDS011;766;51.502;9.752;2024-03-25T07:52:11;15.88;;;3.78;;
1545;SDS011;766;51.502;9.752;2024-03-25T07:54:40;11.07;;;2.70;;
1545;SDS011;766;51.502;9.752;2024-03-25T07:57:07;8.65;;;3.13;;
1545;SDS011;766;51.502;9.752;2024-03-25T07:59:33;17.48;;;3.15;;
1545;SDS011;766;51.502;9.752;2024-03-25T08:01:59;11.13;;;2.50;;
1545;SDS011;766;51.502;9.752;2024-03-25T08:04:26;8.93;;;2.83;;
1545;SDS011;766;51.502;9.752;2024-03-25T08:06:52;9.70;;;2.90;;
1545;SDS011;766;51.502;9.752;2024-03-25T08:09:20;14.32;;;3.63;;
1545;SDS011;766;51.502;9.752;2024-03-25T08:11:46;13.73;;;2.78;;
1545;SDS011;766;51.502;9.752;2024-03-25T08:14:12;7.93;;;2.58;;
1545;SDS011;766;51.502;9.752;2024-03-25T08:16:38;10.13;;;2.90;;
1545;SDS011;766;51.502;9.752;2024-03-25T08:19:05;15.80;;;2.85;;
1545;SDS011;766;51.502;9.752;2024-03-25T08:21:31;10.57;;;2.63;;
1545;SDS011;766;51.502;9.752;2024-03-25T08:23:57;10.93;;;2.95;;
1545;SDS011;766;51.502;9.752;2024-03-25T08:26:25;16.63;;;2.70;;
1545;SDS011;766;51.502;9.752;2024-03-25T08:28:51;8.10;;;2.60;;
1545;SDS011;766;51.502;9.752;2024-03-25T08:31:19;10.40;;;2.33;;
1545;SDS011;766;51.502;9.752;2024-03-25T08:33:45;13.77;;;2.63;;
1545;SDS011;766;51.502;9.752;2024-03-25T08:36:11;12.57;;;3.10;;
1545;SDS011;766;51.502;9.752;2024-03-25T08:38:38;14.43;;;3.00;;
1545;SDS011;766;51.502;9.752;2024-03-25T08:41:04;10.02;;;2.50;;
1545;SDS011;766;51.502;9.752;2024-03-25T08:43:32;11.13;;;2.22;;
1545;SDS011;766;51.502;9.752;2024-03-25T08:46:01;9.90;;;2.22;;
1545;SDS011;766;51.502;9.752;2024-03-25T08:48:27;11.25;;;2.53;;
1545;SDS011;766;51.502;9.752;2024-03-25T08:50:54;16.67;;;2.72;;
1545;SDS011;766;51.502;9.752;2024-03-25T08:53:20;10.88;;;2.13;;
1545;SDS011;766;51.502;9.752;2024-03-25T08:55:47;9.02;;;2.97;;
1545;SDS011;766;51.502;9.752;2024-03-25T08:58:14;9.98;;;2.40;;
1545;SDS011;766;51.502;9.752;2024-03-25T09:00:42;13.05;;;2.55;;
1545;SDS011;766;51.502;9.752;2024-03-25T09:03:09;7.22;;;2.03;;
1545;SDS011;766;51.502;9.752;2024-03-25T09:05:35;6.05;;;1.75;;
1545;SDS011;766;51.502;9.752;2024-03-25T09:08:01;10.23;;;2.45;;
1545;SDS011;766;51.502;9.752;2024-03-25T09:10:28;17.80;;;2.90;;
1545;SDS011;766;51.502;9.752;2024-03-25T09:13:13;10.07;;;2.20;;
1545;SDS011;766;51.502;9.752;2024-03-25T09:15:39;8.30;;;1.80;;
1545;SDS011;766;51.502;9.752;2024-03-25T09:18:07;14.27;;;2.42;;
1545;SDS011;766;51.502;9.752;2024-03-25T09:20:33;9.60;;;1.55;;
1545;SDS011;766;51.502;9.752;2024-03-25T09:23:00;9.02;;;2.20;;
1545;SDS011;766;51.502;9.752;2024-03-25T09:25:26;9.98;;;2.10;;
1545;SDS011;766;51.502;9.752;2024-03-25T09:27:53;10.40;;;2.45;;
1545;SDS011;766;51.502;9.752;2024-03-25T09:30:19;8.73;;;2.33;;
1545;SDS011;766;51.502;9.752;2024-03-25T09:32:47;10.45;;;2.30;;
1545;SDS011;766;51.502;9.752;2024-03-25T09:35:14;8.40;;;2.28;;
1545;SDS011;766;51.502;9.752;2024-03-25T09:37:41;12.23;;;2.70;;
1545;SDS011;766;51.502;9.752;2024-03-25T09:40:07;7.07;;;2.40;;
1545;SDS011;766;51.502;9.752;2024-03-25T09:42:36;9.80;;;2.83;;
1545;SDS011;766;51.502;9.752;2024-03-25T09:45:07;11.07;;;2.20;;
1545;SDS011;766;51.502;9.752;2024-03-25T09:47:35;6.03;;;2.28;;
1545;SDS011;766;51.502;9.752;2024-03-25T09:50:02;6.40;;;2.20;;
1545;SDS011;766;51.502;9.752;2024-03-25T09:52:32;9.30;;;2.00;;
1545;SDS011;766;51.502;9.752;2024-03-25T09:54:59;9.13;;;2.60;;
1545;SDS011;766;51.502;9.752;2024-03-25T09:57:25;10.35;;;2.40;;
1545;SDS011;766;51.502;9.752;2024-03-25T09:59:52;9.93;;;2.58;;
1545;SDS011;766;51.502;9.752;2024-03-25T10:02:18;9.57;;;2.13;;
1545;SDS011;766;51.502;9.752;2024-03-25T10:04:46;11.57;;;2.80;;
1545;SDS011;766;51.502;9.752;2024-03-25T10:07:16;10.27;;;2.47;;
1545;SDS011;766;51.502;9.752;2024-03-25T10:09:49;13.07;;;2.88;;
1545;SDS011;766;51.502;9.752;2024-03-25T10:12:15;8.10;;;2.38;;
1545;SDS011;766;51.502;9.752;2024-03-25T10:14:42;7.68;;;2.10;;
1545;SDS011;766;51.502;9.752;2024-03-25T10:17:09;11.13;;;3.00;;
1545;SDS011;766;51.502;9.752;2024-03-25T10:19:35;6.60;;;2.17;;
1545;SDS011;766;51.502;9.752;2024-03-25T10:22:03;9.57;;;2.35;;
1545;SDS011;766;51.502;9.752;2024-03-25T10:24:38;11.23;;;2.78;;
1545;SDS011;766;51.502;9.752;2024-03-25T10:27:09;10.48;;;2.67;;
1545;SDS011;766;51.502;9.752;2024-03-25T10:29:37;7.43;;;2.20;;
1545;SDS011;766;51.502;9.752;2024-03-25T10:32:04;10.13;;;2.60;;
1545;SDS011;766;51.502;9.752;2024-03-25T10:34:31;6.80;;;2.35;;
1545;SDS011;766;51.502;9.752;2024-03-25T10:36:57;7.32;;;2.30;;
1545;SDS011;766;51.502;9.752;2024-03-25T10:39:27;10.27;;;2.50;;
1545;SDS011;766;51.502;9.752;2024-03-25T10:41:55;12.90;;;2.50;;
1545;SDS011;766;51.502;9.752;2024-03-25T10:44:24;9.95;;;2.40;;
1545;SDS011;766;51.502;9.752;2024-03-25T10:46:52;9.10;;;2.20;;
1545;SDS011;766;51.502;9.752;2024-03-25T10:49:24;12.25;;;2.78;;
1545;SDS011;766;51.502;9.752;2024-03-25T10:52:01;9.30;;;2.60;;
1545;SDS011;766;51.502;9.752;2024-03-25T10:54:29;11.90;;;2.58;;
1545;SDS011;766;51.502;9.752;2024-03-25T10:56:57;5.53;;;1.73;;
1545;SDS011;766;51.502;9.752;2024-03-25T10:59:26;7.15;;;2.17;;
1545;SDS011;766;51.502;9.752;2024-03-25T11:01:56;9.75;;;2.15;;
1545;SDS011;766;51.502;9.752;2024-03-25T11:04:22;6.40;;;2.72;;
1545;SDS011;766;51.502;9.752;2024-03-25T11:06:50;8.10;;;1.92;;
1545;SDS011;766;51.502;9.752;2024-03-25T11:09:23;7.30;;;1.90;;
1545;SDS011;766;51.502;9.752;2024-03-25T11:11:52;6.72;;;1.70;;
1545;SDS011;766;51.502;9.752;2024-03-25T11:14:19;8.57;;;2.08;;
1545;SDS011;766;51.502;9.752;2024-03-25T11:16:52;5.60;;;2.20;;
1545;SDS011;766;51.502;9.752;2024-03-25T11:19:18;9.65;;;2.17;;
1545;SDS011;766;51.502;9.752;2024-03-25T11:21:45;6.72;;;1.95;;
1545;SDS011;766;51.502;9.752;2024-03-25T11:24:12;4.47;;;1.60;;
1545;SDS011;766;51.502;9.752;2024-03-25T11:26:41;7.38;;;1.60;;
1545;SDS011;766;51.502;9.752;2024-03-25T11:29:08;7.93;;;1.58;;
1545;SDS011;766;51.502;9.752;2024-03-25T11:31:38;9.52;;;1.60;;
1545;SDS011;766;51.502;9.752;2024-03-25T11:34:07;6.72;;;1.90;;
1545;SDS011;766;51.502;9.752;2024-03-25T11:36:33;9.23;;;2.00;;
1545;SDS011;766;51.502;9.752;2024-03-25T11:39:04;5.93;;;1.60;;
1545;SDS011;766;51.502;9.752;2024-03-25T11:41:31;8.65;;;1.80;;
1545;SDS011;766;51.502;9.752;2024-03-25T11:43:58;3.90;;;1.30;;
1545;SDS011;766;51.502;9.752;2024-03-25T11:46:24;5.88;;;1.42;;
1545;SDS011;766;51.502;9.752;2024-03-25T11:48:51;5.72;;;1.50;;
1545;SDS011;766;51.502;9.752;2024-03-25T11:51:19;6.95;;;1.48;;
1545;SDS011;766;51.502;9.752;2024-03-25T11:53:46;9.25;;;1.50;;
1545;SDS011;766;51.502;9.752;2024-03-25T11:56:13;4.85;;;1.20;;
1545;SDS011;766;51.502;9.752;2024-03-25T11:58:40;4.90;;;1.15;;
1545;SDS011;766;51.502;9.752;2024-03-25T12:01:07;4.80;;;1.35;;
1545;SDS011;766;51.502;9.752;2024-03-25T12:03:33;6.40;;;1.50;;
1545;SDS011;766;51.502;9.752;2024-03-25T12:06:00;8.18;;;1.50;;
1545;SDS011;766;51.502;9.752;2024-03-25T12:08:28;7.18;;;1.58;;
1545;SDS011;766;51.502;9.752;2024-03-25T12:10:54;6.35;;;1.52;;
1545;SDS011;766;51.502;9.752;2024-03-25T12:13:38;5.93;;;1.50;;
1545;SDS011;766;51.502;9.752;2024-03-25T12:16:05;4.80;;;1.58;;
1545;SDS011;766;51.502;9.752;2024-03-25T12:18:32;6.88;;;1.83;;
1545;SDS011;766;51.502;9.752;2024-03-25T12:20:58;3.67;;;1.40;;
1545;SDS011;766;51.502;9.752;2024-03-25T12:23:29;7.28;;;2.13;;
1545;SDS011;766;51.502;9.752;2024-03-25T12:25:56;5.60;;;1.73;;
1545;SDS011;766;51.502;9.752;2024-03-25T12:28:24;6.20;;;1.70;;
1545;SDS011;766;51.502;9.752;2024-03-25T12:30:50;7.15;;;2.00;;
1545;SDS011;766;51.502;9.752;2024-03-25T12:33:17;6.93;;;1.63;;
1545;SDS011;766;51.502;9.752;2024-03-25T12:35:45;4.95;;;1.35;;
1545;SDS011;766;51.502;9.752;2024-03-25T12:38:21;9.23;;;2.15;;
1545;SDS011;766;51.502;9.752;2024-03-25T12:40:52;5.88;;;1.40;;
1545;SDS011;766;51.502;9.752;2024-03-25T12:43:19;7.38;;;1.83;;
1545;SDS011;766;51.502;9.752;2024-03-25T12:45:45;5.97;;;1.75;;
1545;SDS011;766;51.502;9.752;2024-03-25T12:48:12;6.28;;;1.67;;
1545;SDS011;766;51.502;9.752;2024-03-25T12:50:38;6.95;;;1.50;;
1545;SDS011;766;51.502;9.752;2024-03-25T12:53:04;3.97;;;1.10;;
1545;SDS011;766;51.502;9.752;2024-03-25T12:55:31;4.50;;;1.65;;
1545;SDS011;766;51.502;9.752;2024-03-25T12:57:58;6.07;;;1.67;;
1545;SDS011;766;51.502;9.752;2024-03-25T13:00:25;3.28;;;1.40;;
1545;SDS011;766;51.502;9.752;2024-03-25T13:02:51;6.70;;;1.50;;
1545;SDS011;766;51.502;9.752;2024-03-25T13:05:17;3.20;;;1.25;;
1545;SDS011;766;51.502;9.752;2024-03-25T13:07:44;5.80;;;1.38;;
1545;SDS011;766;51.502;9.752;2024-03-25T13:10:10;6.28;;;1.60;;
1545;SDS011;766;51.502;9.752;2024-03-25T13:12:36;5.72;;;1.45;;
1545;SDS011;766;51.502;9.752;2024-03-25T13:15:07;5.82;;;1.75;;
1545;SDS011;766;51.502;9.752;2024-03-25T13:17:35;4.95;;;1.30;;
1545;SDS011;766;51.502;9.752;2024-03-25T13:20:01;4.88;;;1.40;;
1545;SDS011;766;51.502;9.752;2024-03-25T13:22:28;3.78;;;1.48;;
1545;SDS011;766;51.502;9.752;2024-03-25T13:24:54;5.65;;;1.55;;
1545;SDS011;766;51.502;9.752;2024-03-25T13:27:20;6.78;;;1.50;;
1545;SDS011;766;51.502;9.752;2024-03-25T13:29:47;5.65;;;1.63;;
1545;SDS011;766;51.502;9.752;2024-03-25T13:32:14;3.63;;;1.20;;
1545;SDS011;766;51.502;9.752;2024-03-25T13:34:41;5.43;;;1.50;;
1545;SDS011;766;51.502;9.752;2024-03-25T13:37:07;4.43;;;1.30;;
1545;SDS011;766;51.502;9.752;2024-03-25T13:39:34;4.07;;;1.30;;
1545;SDS011;766;51.502;9.752;2024-03-25T13:42:00;7.53;;;1.73;;
1545;SDS011;766;51.502;9.752;2024-03-25T13:44:27;7.57;;;1.38;;
1545;SDS011;766;51.502;9.752;2024-03-25T13:46:53;6.95;;;1.80;;
1545;SDS011;766;51.502;9.752;2024-03-25T13:49:21;1.90;;;0.90;;
1545;SDS011;766;51.502;9.752;2024-03-25T13:51:48;4.97;;;1.48;;
1545;SDS011;766;51.502;9.752;2024-03-25T13:54:14;10.82;;;1.50;;
1545;SDS011;766;51.502;9.752;2024-03-25T13:56:40;4.65;;;1.33;;
1545;SDS011;766;51.502;9.752;2024-03-25T13:59:07;9.20;;;1.77;;
1545;SDS011;766;51.502;9.752;2024-03-25T14:01:33;5.07;;;1.80;;
1545;SDS011;766;51.502;9.752;2024-03-25T14:04:00;5.40;;;1.23;;
1545;SDS011;766;51.502;9.752;2024-03-25T14:06:28;5.30;;;1.75;;
1545;SDS011;766;51.502;9.752;2024-03-25T14:08:54;4.47;;;1.20;;
1545;SDS011;766;51.502;9.752;2024-03-25T14:11:20;5.22;;;1.50;;
1545;SDS011;766;51.502;9.752;2024-03-25T14:13:50;8.93;;;1.77;;
1545;SDS011;766;51.502;9.752;2024-03-25T14:16:16;5.28;;;1.50;;
1545;SDS011;766;51.502;9.752;2024-03-25T14:18:44;5.30;;;1.58;;
1545;SDS011;766;51.502;9.752;2024-03-25T14:21:10;5.07;;;1.63;;
1545;SDS011;766;51.502;9.752;2024-03-25T14:23:38;4.07;;;1.38;;
1545;SDS011;766;51.502;9.752;2024-03-25T14:26:08;6.68;;;1.38;;
1545;SDS011;766;51.502;9.752;2024-03-25T14:28:34;3.97;;;1.10;;
1545;SDS011;766;51.502;9.752;2024-03-25T14:31:00;6.78;;;1.63;;
1545;SDS011;766;51.502;9.752;2024-03-25T14:33:27;5.03;;;1.83;;
1545;SDS011;766;51.502;9.752;2024-03-25T14:35:53;3.65;;;1.33;;
1545;SDS011;766;51.502;9.752;2024-03-25T14:38:19;6.32;;;1.63;;
1545;SDS011;766;51.502;9.752;2024-03-25T14:40:47;4.60;;;1.80;;
1545;SDS011;766;51.502;9.752;2024-03-25T14:43:13;6.65;;;1.80;;
1545;SDS011;766;51.502;9.752;2024-03-25T14:45:40;4.47;;;1.20;;
1545;SDS011;766;51.502;9.752;2024-03-25T14:48:06;3.17;;;1.33;;
1545;SDS011;766;51.502;9.752;2024-03-25T14:50:33;8.10;;;1.70;;
1545;SDS011;766;51.502;9.752;2024-03-25T14:52:59;4.13;;;1.50;;
1545;SDS011;766;51.502;9.752;2024-03-25T14:55:25;4.93;;;1.42;;
1545;SDS011;766;51.502;9.752;2024-03-25T14:57:53;9.02;;;2.03;;
1545;SDS011;766;51.502;9.752;2024-03-25T15:00:19;5.93;;;1.80;;
1545;SDS011;766;51.502;9.752;2024-03-25T15:02:49;3.63;;;1.45;;
1545;SDS011;766;51.502;9.752;2024-03-25T15:05:16;5.60;;;1.20;;
1545;SDS011;766;51.502;9.752;2024-03-25T15:07:42;5.55;;;1.35;;
1545;SDS011;766;51.502;9.752;2024-03-25T15:10:08;5.30;;;1.13;;
1545;SDS011;766;51.502;9.752;2024-03-25T15:12:35;9.48;;;2.25;;
1545;SDS011;766;51.502;9.752;2024-03-25T15:15:03;3.42;;;1.17;;
1545;SDS011;766;51.502;9.752;2024-03-25T15:17:31;3.25;;;1.20;;
1545;SDS011;766;51.502;9.752;2024-03-25T15:19:57;5.00;;;1.30;;
1545;SDS011;766;51.502;9.752;2024-03-25T15:22:23;3.70;;;1.30;;